sensor_id;sensor_type;location;lat;lon;timestamp;temperature;humidity
76567;DHT22;65428;53.194;6.132;2022-11-25T00:01:23;7.40;94.50
76567;DHT22;65428;53.194;6.132;2022-11-25T00:03:50;7.50;94.60
76567;DHT22;65428;53.194;6.132;2022-11-25T00:06:19;7.40;94.40
76567;DHT22;65428;53.194;6.132;2022-11-25T00:08:47;7.40;94.40
76567;DHT22;65428;53.194;6.132;2022-11-25T00:11:14;7.40;94.30
76567;DHT22;65428;53.194;6.132;2022-11-25T00:13:42;7.40;94.30
76567;DHT22;65428;53.194;6.132;2022-11-25T00:16:09;7.40;94.40
76567;DHT22;65428;53.194;6.132;2022-11-25T00:18:36;7.40;94.30
76567;DHT22;65428;53.194;6.132;2022-11-25T00:21:11;7.60;94.40
76567;DHT22;65428;53.194;6.132;2022-11-25T00:23:37;7.50;94.50
76567;DHT22;65428;53.194;6.132;2022-11-25T00:26:12;7.40;94.40
76567;DHT22;65428;53.194;6.132;2022-11-25T00:28:39;7.40;94.40
76567;DHT22;65428;53.194;6.132;2022-11-25T00:33:38;7.40;94.70
76567;DHT22;65428;53.194;6.132;2022-11-25T00:36:05;7.40;94.80
76567;DHT22;65428;53.194;6.132;2022-11-25T00:38:31;7.40;94.70
76567;DHT22;65428;53.194;6.132;2022-11-25T00:40:57;7.50;94.80
76567;DHT22;65428;53.194;6.132;2022-11-25T00:43:41;7.40;94.70
76567;DHT22;65428;53.194;6.132;2022-11-25T00:46:25;7.40;94.70
76567;DHT22;65428;53.194;6.132;2022-11-25T00:48:51;7.40;94.60
76567;DHT22;65428;53.194;6.132;2022-11-25T00:51:17;7.40;94.60
76567;DHT22;65428;53.194;6.132;2022-11-25T00:53:42;7.40;94.60
76567;DHT22;65428;53.194;6.132;2022-11-25T00:56:08;7.50;94.70
76567;DHT22;65428;53.194;6.132;2022-11-25T00:58:43;7.50;94.60
76567;DHT22;65428;53.194;6.132;2022-11-25T01:01:10;7.50;94.60
76567;DHT22;65428;53.194;6.132;2022-11-25T01:03:36;7.50;94.50
76567;DHT22;65428;53.194;6.132;2022-11-25T01:06:03;7.50;94.60
76567;DHT22;65428;53.194;6.132;2022-11-25T01:08:29;7.50;94.50
76567;DHT22;65428;53.194;6.132;2022-11-25T01:10:59;7.40;94.50
76567;DHT22;65428;53.194;6.132;2022-11-25T01:13:26;7.50;94.40
76567;DHT22;65428;53.194;6.132;2022-11-25T01:15:52;7.50;94.40
76567;DHT22;65428;53.194;6.132;2022-11-25T01:18:17;7.50;94.40
76567;DHT22;65428;53.194;6.132;2022-11-25T01:20:43;7.50;94.50
76567;DHT22;65428;53.194;6.132;2022-11-25T01:23:09;7.50;94.50
76567;DHT22;65428;53.194;6.132;2022-11-25T01:25:38;7.50;94.40
76567;DHT22;65428;53.194;6.132;2022-11-25T01:28:07;7.50;94.40
76567;DHT22;65428;53.194;6.132;2022-11-25T01:30:32;7.60;94.40
76567;DHT22;65428;53.194;6.132;2022-11-25T01:32:58;7.60;94.40
76567;DHT22;65428;53.194;6.132;2022-11-25T01:35:24;7.60;94.30
76567;DHT22;65428;53.194;6.132;2022-11-25T01:37:49;7.60;94.30
76567;DHT22;65428;53.194;6.132;2022-11-25T01:40:15;7.60;94.30
76567;DHT22;65428;53.194;6.132;2022-11-25T01:42:45;7.70;94.30
76567;DHT22;65428;53.194;6.132;2022-11-25T01:47:55;7.70;94.30
76567;DHT22;65428;53.194;6.132;2022-11-25T01:50:23;7.70;94.30
76567;DHT22;65428;53.194;6.132;2022-11-25T01:52:52;7.70;94.30
76567;DHT22;65428;53.194;6.132;2022-11-25T01:55:28;7.70;94.30
76567;DHT22;65428;53.194;6.132;2022-11-25T01:58:32;7.70;94.40
76567;DHT22;65428;53.194;6.132;2022-11-25T02:00:59;7.60;94.50
76567;DHT22;65428;53.194;6.132;2022-11-25T02:03:33;7.60;94.70
76567;DHT22;65428;53.194;6.132;2022-11-25T02:06:21;7.70;94.80
76567;DHT22;65428;53.194;6.132;2022-11-25T02:08:49;7.60;94.90
76567;DHT22;65428;53.194;6.132;2022-11-25T02:11:17;7.60;95.00
76567;DHT22;65428;53.194;6.132;2022-11-25T02:13:45;7.60;95.00
76567;DHT22;65428;53.194;6.132;2022-11-25T02:16:11;7.60;95.00
76567;DHT22;65428;53.194;6.132;2022-11-25T02:18:37;7.60;95.00
76567;DHT22;65428;53.194;6.132;2022-11-25T02:21:03;7.60;95.10
76567;DHT22;65428;53.194;6.132;2022-11-25T02:23:57;7.60;95.10
76567;DHT22;65428;53.194;6.132;2022-11-25T02:26:26;7.60;95.10
76567;DHT22;65428;53.194;6.132;2022-11-25T02:28:51;7.60;95.10
76567;DHT22;65428;53.194;6.132;2022-11-25T02:31:22;7.60;95.20
76567;DHT22;65428;53.194;6.132;2022-11-25T02:33:48;7.60;95.40
76567;DHT22;65428;53.194;6.132;2022-11-25T02:36:20;7.60;95.10
76567;DHT22;65428;53.194;6.132;2022-11-25T02:38:55;7.60;95.20
76567;DHT22;65428;53.194;6.132;2022-11-25T02:41:34;7.60;95.10
76567;DHT22;65428;53.194;6.132;2022-11-25T02:44:02;7.60;95.20
76567;DHT22;65428;53.194;6.132;2022-11-25T02:46:29;7.60;95.20
76567;DHT22;65428;53.194;6.132;2022-11-25T02:48:56;7.60;95.20
76567;DHT22;65428;53.194;6.132;2022-11-25T02:51:24;7.60;95.20
76567;DHT22;65428;53.194;6.132;2022-11-25T02:53:50;7.60;95.20
76567;DHT22;65428;53.194;6.132;2022-11-25T02:56:17;7.60;95.20
76567;DHT22;65428;53.194;6.132;2022-11-25T02:58:44;7.60;95.20
76567;DHT22;65428;53.194;6.132;2022-11-25T03:01:09;7.70;95.30
76567;DHT22;65428;53.194;6.132;2022-11-25T03:03:36;7.70;95.30
76567;DHT22;65428;53.194;6.132;2022-11-25T03:06:02;7.70;95.30
76567;DHT22;65428;53.194;6.132;2022-11-25T03:08:28;7.70;95.20
76567;DHT22;65428;53.194;6.132;2022-11-25T03:10:53;7.80;95.30
76567;DHT22;65428;53.194;6.132;2022-11-25T03:13:19;7.80;95.30
76567;DHT22;65428;53.194;6.132;2022-11-25T03:15:45;7.80;95.50
76567;DHT22;65428;53.194;6.132;2022-11-25T03:18:11;7.90;95.30
76567;DHT22;65428;53.194;6.132;2022-11-25T03:20:37;7.80;95.40
76567;DHT22;65428;53.194;6.132;2022-11-25T03:23:03;7.80;95.40
76567;DHT22;65428;53.194;6.132;2022-11-25T03:25:29;7.90;95.50
76567;DHT22;65428;53.194;6.132;2022-11-25T03:27:55;7.90;95.60
76567;DHT22;65428;53.194;6.132;2022-11-25T03:30:24;7.90;95.60
76567;DHT22;65428;53.194;6.132;2022-11-25T03:32:50;7.90;95.60
76567;DHT22;65428;53.194;6.132;2022-11-25T03:35:16;8.00;95.60
76567;DHT22;65428;53.194;6.132;2022-11-25T03:37:43;7.90;95.60
76567;DHT22;65428;53.194;6.132;2022-11-25T03:40:10;7.90;95.60
76567;DHT22;65428;53.194;6.132;2022-11-25T03:42:36;8.00;95.60
76567;DHT22;65428;53.194;6.132;2022-11-25T03:45:03;7.90;95.70
76567;DHT22;65428;53.194;6.132;2022-11-25T03:47:28;8.00;95.70
76567;DHT22;65428;53.194;6.132;2022-11-25T03:49:54;8.00;95.70
76567;DHT22;65428;53.194;6.132;2022-11-25T03:52:20;8.00;95.70
76567;DHT22;65428;53.194;6.132;2022-11-25T03:54:45;8.00;95.70
76567;DHT22;65428;53.194;6.132;2022-11-25T03:57:11;8.00;95.70
76567;DHT22;65428;53.194;6.132;2022-11-25T03:59:37;8.00;95.70
76567;DHT22;65428;53.194;6.132;2022-11-25T04:02:02;8.00;95.80
76567;DHT22;65428;53.194;6.132;2022-11-25T04:04:28;8.00;95.70
76567;DHT22;65428;53.194;6.132;2022-11-25T04:06:53;8.00;95.70
76567;DHT22;65428;53.194;6.132;2022-11-25T04:09:19;8.10;95.70
76567;DHT22;65428;53.194;6.132;2022-11-25T04:11:45;8.10;95.70
76567;DHT22;65428;53.194;6.132;2022-11-25T04:14:29;8.30;95.80
76567;DHT22;65428;53.194;6.132;2022-11-25T04:16:55;8.10;95.70
76567;DHT22;65428;53.194;6.132;2022-11-25T04:19:21;8.20;95.70
76567;DHT22;65428;53.194;6.132;2022-11-25T04:21:47;8.10;95.60
76567;DHT22;65428;53.194;6.132;2022-11-25T04:24:12;8.10;95.60
76567;DHT22;65428;53.194;6.132;2022-11-25T04:26:38;8.10;95.60
76567;DHT22;65428;53.194;6.132;2022-11-25T04:29:03;8.20;95.60
76567;DHT22;65428;53.194;6.132;2022-11-25T04:31:29;8.20;95.60
76567;DHT22;65428;53.194;6.132;2022-11-25T04:33:55;8.20;95.60
76567;DHT22;65428;53.194;6.132;2022-11-25T04:36:21;8.40;95.90
76567;DHT22;65428;53.194;6.132;2022-11-25T04:38:46;8.20;95.50
76567;DHT22;65428;53.194;6.132;2022-11-25T04:41:12;8.20;95.50
76567;DHT22;65428;53.194;6.132;2022-11-25T04:43:37;8.20;95.50
76567;DHT22;65428;53.194;6.132;2022-11-25T04:46:03;8.20;95.50
76567;DHT22;65428;53.194;6.132;2022-11-25T04:48:29;8.20;95.50
76567;DHT22;65428;53.194;6.132;2022-11-25T04:50:55;8.20;95.60
76567;DHT22;65428;53.194;6.132;2022-11-25T04:53:20;8.20;95.60
76567;DHT22;65428;53.194;6.132;2022-11-25T04:55:46;8.20;95.60
76567;DHT22;65428;53.194;6.132;2022-11-25T04:58:12;8.20;95.60
76567;DHT22;65428;53.194;6.132;2022-11-25T05:00:37;8.30;95.60
76567;DHT22;65428;53.194;6.132;2022-11-25T05:03:03;8.20;95.50
76567;DHT22;65428;53.194;6.132;2022-11-25T05:05:29;8.20;95.50
76567;DHT22;65428;53.194;6.132;2022-11-25T05:07:55;8.40;95.60
76567;DHT22;65428;53.194;6.132;2022-11-25T05:10:21;8.20;95.50
76567;DHT22;65428;53.194;6.132;2022-11-25T05:12:47;8.20;95.50
76567;DHT22;65428;53.194;6.132;2022-11-25T05:15:12;8.20;95.60
76567;DHT22;65428;53.194;6.132;2022-11-25T05:17:38;8.20;95.60
76567;DHT22;65428;53.194;6.132;2022-11-25T05:20:05;8.20;95.60
76567;DHT22;65428;53.194;6.132;2022-11-25T05:22:32;8.20;95.50
76567;DHT22;65428;53.194;6.132;2022-11-25T05:24:58;8.20;95.50
76567;DHT22;65428;53.194;6.132;2022-11-25T05:27:24;8.20;95.50
76567;DHT22;65428;53.194;6.132;2022-11-25T05:29:50;8.20;95.50
76567;DHT22;65428;53.194;6.132;2022-11-25T05:32:16;8.20;95.90
76567;DHT22;65428;53.194;6.132;2022-11-25T05:34:42;8.20;95.60
76567;DHT22;65428;53.194;6.132;2022-11-25T05:37:09;8.20;95.60
76567;DHT22;65428;53.194;6.132;2022-11-25T05:39:35;8.20;95.50
76567;DHT22;65428;53.194;6.132;2022-11-25T05:42:01;8.20;95.60
76567;DHT22;65428;53.194;6.132;2022-11-25T05:44:27;8.20;95.60
76567;DHT22;65428;53.194;6.132;2022-11-25T05:46:52;8.20;95.60
76567;DHT22;65428;53.194;6.132;2022-11-25T05:49:18;8.20;95.60
76567;DHT22;65428;53.194;6.132;2022-11-25T05:51:44;8.20;95.60
76567;DHT22;65428;53.194;6.132;2022-11-25T05:54:10;8.20;95.60
76567;DHT22;65428;53.194;6.132;2022-11-25T05:56:35;8.20;95.70
76567;DHT22;65428;53.194;6.132;2022-11-25T05:59:02;8.30;95.80
76567;DHT22;65428;53.194;6.132;2022-11-25T06:01:28;8.30;95.70
76567;DHT22;65428;53.194;6.132;2022-11-25T06:03:54;8.30;95.60
76567;DHT22;65428;53.194;6.132;2022-11-25T06:06:19;8.60;95.70
76567;DHT22;65428;53.194;6.132;2022-11-25T06:08:46;8.40;95.70
76567;DHT22;65428;53.194;6.132;2022-11-25T06:11:13;8.30;95.60
76567;DHT22;65428;53.194;6.132;2022-11-25T06:13:40;8.40;95.60
76567;DHT22;65428;53.194;6.132;2022-11-25T06:16:11;8.50;95.60
76567;DHT22;65428;53.194;6.132;2022-11-25T06:18:38;8.40;95.60
76567;DHT22;65428;53.194;6.132;2022-11-25T06:21:05;8.40;95.60
76567;DHT22;65428;53.194;6.132;2022-11-25T06:23:31;8.40;95.60
76567;DHT22;65428;53.194;6.132;2022-11-25T06:26:13;8.50;95.60
76567;DHT22;65428;53.194;6.132;2022-11-25T06:28:38;8.50;95.60
76567;DHT22;65428;53.194;6.132;2022-11-25T06:33:31;8.50;95.50
76567;DHT22;65428;53.194;6.132;2022-11-25T06:35:57;8.50;95.50
76567;DHT22;65428;53.194;6.132;2022-11-25T06:38:22;8.50;95.50
76567;DHT22;65428;53.194;6.132;2022-11-25T06:40:48;8.50;95.40
76567;DHT22;65428;53.194;6.132;2022-11-25T06:43:13;8.50;95.40
76567;DHT22;65428;53.194;6.132;2022-11-25T06:45:39;8.50;95.40
76567;DHT22;65428;53.194;6.132;2022-11-25T06:48:04;8.50;95.40
76567;DHT22;65428;53.194;6.132;2022-11-25T06:50:30;8.40;95.40
76567;DHT22;65428;53.194;6.132;2022-11-25T06:52:56;8.50;95.40
76567;DHT22;65428;53.194;6.132;2022-11-25T06:55:21;8.50;95.40
76567;DHT22;65428;53.194;6.132;2022-11-25T06:57:47;8.40;95.30
76567;DHT22;65428;53.194;6.132;2022-11-25T07:00:13;8.40;95.30
76567;DHT22;65428;53.194;6.132;2022-11-25T07:02:38;8.30;95.20
76567;DHT22;65428;53.194;6.132;2022-11-25T07:05:04;8.20;95.20
76567;DHT22;65428;53.194;6.132;2022-11-25T07:07:30;8.20;95.20
76567;DHT22;65428;53.194;6.132;2022-11-25T07:09:55;8.10;95.10
76567;DHT22;65428;53.194;6.132;2022-11-25T07:12:21;8.00;95.10
76567;DHT22;65428;53.194;6.132;2022-11-25T07:14:49;8.00;95.10
76567;DHT22;65428;53.194;6.132;2022-11-25T07:17:15;7.90;95.20
76567;DHT22;65428;53.194;6.132;2022-11-25T07:19:41;7.90;95.20
76567;DHT22;65428;53.194;6.132;2022-11-25T07:22:07;7.90;95.20
76567;DHT22;65428;53.194;6.132;2022-11-25T07:24:32;7.70;95.10
76567;DHT22;65428;53.194;6.132;2022-11-25T07:26:58;7.70;95.20
76567;DHT22;65428;53.194;6.132;2022-11-25T07:29:23;7.70;95.40
76567;DHT22;65428;53.194;6.132;2022-11-25T07:31:49;7.60;95.20
76567;DHT22;65428;53.194;6.132;2022-11-25T07:34:17;7.60;95.40
76567;DHT22;65428;53.194;6.132;2022-11-25T07:36:44;7.60;95.40
76567;DHT22;65428;53.194;6.132;2022-11-25T07:39:16;7.60;95.40
76567;DHT22;65428;53.194;6.132;2022-11-25T07:41:42;7.80;95.60
76567;DHT22;65428;53.194;6.132;2022-11-25T07:44:11;7.50;95.40
76567;DHT22;65428;53.194;6.132;2022-11-25T07:46:39;7.50;95.50
76567;DHT22;65428;53.194;6.132;2022-11-25T07:49:14;7.50;95.40
76567;DHT22;65428;53.194;6.132;2022-11-25T07:51:48;7.50;95.50
76567;DHT22;65428;53.194;6.132;2022-11-25T07:54:14;7.50;95.60
76567;DHT22;65428;53.194;6.132;2022-11-25T07:56:41;7.50;95.50
76567;DHT22;65428;53.194;6.132;2022-11-25T07:59:10;7.50;95.70
76567;DHT22;65428;53.194;6.132;2022-11-25T08:01:36;7.50;95.50
76567;DHT22;65428;53.194;6.132;2022-11-25T08:04:02;7.50;95.60
76567;DHT22;65428;53.194;6.132;2022-11-25T08:06:28;7.50;95.60
76567;DHT22;65428;53.194;6.132;2022-11-25T08:08:55;7.50;95.50
76567;DHT22;65428;53.194;6.132;2022-11-25T08:13:48;7.50;95.60
76567;DHT22;65428;53.194;6.132;2022-11-25T08:16:16;7.50;95.70
76567;DHT22;65428;53.194;6.132;2022-11-25T08:18:42;7.60;95.80
76567;DHT22;65428;53.194;6.132;2022-11-25T08:21:10;7.60;95.70
76567;DHT22;65428;53.194;6.132;2022-11-25T08:23:37;7.60;95.60
76567;DHT22;65428;53.194;6.132;2022-11-25T08:26:12;7.60;95.50
76567;DHT22;65428;53.194;6.132;2022-11-25T08:28:39;7.60;95.60
76567;DHT22;65428;53.194;6.132;2022-11-25T08:31:14;7.70;95.90
76567;DHT22;65428;53.194;6.132;2022-11-25T08:33:40;7.80;95.60
76567;DHT22;65428;53.194;6.132;2022-11-25T08:36:06;7.70;95.60
76567;DHT22;65428;53.194;6.132;2022-11-25T08:38:33;7.70;95.60
76567;DHT22;65428;53.194;6.132;2022-11-25T08:40:59;7.60;95.50
76567;DHT22;65428;53.194;6.132;2022-11-25T08:43:25;7.80;95.60
76567;DHT22;65428;53.194;6.132;2022-11-25T08:45:51;7.80;95.60
76567;DHT22;65428;53.194;6.132;2022-11-25T08:48:19;7.90;95.60
76567;DHT22;65428;53.194;6.132;2022-11-25T08:50:53;7.90;95.50
76567;DHT22;65428;53.194;6.132;2022-11-25T08:53:20;7.90;95.50
76567;DHT22;65428;53.194;6.132;2022-11-25T08:55:46;7.90;95.50
76567;DHT22;65428;53.194;6.132;2022-11-25T08:58:12;7.90;95.50
76567;DHT22;65428;53.194;6.132;2022-11-25T09:00:39;8.00;95.50
76567;DHT22;65428;53.194;6.132;2022-11-25T09:03:05;8.00;95.50
76567;DHT22;65428;53.194;6.132;2022-11-25T09:05:31;8.10;95.80
76567;DHT22;65428;53.194;6.132;2022-11-25T09:08:05;8.10;95.30
76567;DHT22;65428;53.194;6.132;2022-11-25T09:10:32;8.10;95.40
76567;DHT22;65428;53.194;6.132;2022-11-25T09:12:58;8.20;95.30
76567;DHT22;65428;53.194;6.132;2022-11-25T09:15:25;8.20;95.30
76567;DHT22;65428;53.194;6.132;2022-11-25T09:18:01;8.40;95.20
76567;DHT22;65428;53.194;6.132;2022-11-25T09:20:28;8.30;95.10
76567;DHT22;65428;53.194;6.132;2022-11-25T09:22:53;8.40;95.20
76567;DHT22;65428;53.194;6.132;2022-11-25T09:25:22;8.50;95.20
76567;DHT22;65428;53.194;6.132;2022-11-25T09:27:48;9.10;94.60
76567;DHT22;65428;53.194;6.132;2022-11-25T09:30:14;9.50;93.80
76567;DHT22;65428;53.194;6.132;2022-11-25T09:32:39;9.60;93.40
76567;DHT22;65428;53.194;6.132;2022-11-25T09:35:05;10.10;93.30
76567;DHT22;65428;53.194;6.132;2022-11-25T09:37:31;10.10;92.90
76567;DHT22;65428;53.194;6.132;2022-11-25T09:39:56;10.30;92.50
76567;DHT22;65428;53.194;6.132;2022-11-25T09:42:31;10.50;91.80
76567;DHT22;65428;53.194;6.132;2022-11-25T09:45:27;10.60;91.90
76567;DHT22;65428;53.194;6.132;2022-11-25T09:48:46;10.80;91.60
76567;DHT22;65428;53.194;6.132;2022-11-25T09:51:28;11.00;91.40
76567;DHT22;65428;53.194;6.132;2022-11-25T09:54:06;11.40;90.70
76567;DHT22;65428;53.194;6.132;2022-11-25T09:56:37;11.10;89.40
76567;DHT22;65428;53.194;6.132;2022-11-25T09:59:20;10.80;90.30
76567;DHT22;65428;53.194;6.132;2022-11-25T10:01:53;10.60;90.50
76567;DHT22;65428;53.194;6.132;2022-11-25T10:04:31;10.30;90.80
76567;DHT22;65428;53.194;6.132;2022-11-25T10:07:00;10.20;91.20
76567;DHT22;65428;53.194;6.132;2022-11-25T10:09:30;10.40;91.60
76567;DHT22;65428;53.194;6.132;2022-11-25T10:12:27;10.60;91.20
76567;DHT22;65428;53.194;6.132;2022-11-25T10:14:59;10.60;90.80
76567;DHT22;65428;53.194;6.132;2022-11-25T10:17:43;11.00;90.90
76567;DHT22;65428;53.194;6.132;2022-11-25T10:22:46;11.60;89.30
76567;DHT22;65428;53.194;6.132;2022-11-25T10:30:36;11.40;88.20
76567;DHT22;65428;53.194;6.132;2022-11-25T10:33:20;11.60;88.70
76567;DHT22;65428;53.194;6.132;2022-11-25T10:35:52;12.20;86.50
76567;DHT22;65428;53.194;6.132;2022-11-25T10:40:58;13.50;81.80
76567;DHT22;65428;53.194;6.132;2022-11-25T10:43:25;13.70;80.90
76567;DHT22;65428;53.194;6.132;2022-11-25T10:46:18;14.00;79.80
76567;DHT22;65428;53.194;6.132;2022-11-25T10:49:11;13.40;81.00
76567;DHT22;65428;53.194;6.132;2022-11-25T10:51:42;12.80;83.20
76567;DHT22;65428;53.194;6.132;2022-11-25T10:56:56;12.20;86.50
76567;DHT22;65428;53.194;6.132;2022-11-25T10:59:33;11.70;87.80
76567;DHT22;65428;53.194;6.132;2022-11-25T11:02:23;11.40;89.40
76567;DHT22;65428;53.194;6.132;2022-11-25T11:04:53;11.70;90.40
76567;DHT22;65428;53.194;6.132;2022-11-25T11:07:19;11.90;90.00
76567;DHT22;65428;53.194;6.132;2022-11-25T11:09:46;11.60;89.50
76567;DHT22;65428;53.194;6.132;2022-11-25T11:12:25;11.40;90.20
76567;DHT22;65428;53.194;6.132;2022-11-25T11:17:35;11.80;90.10
76567;DHT22;65428;53.194;6.132;2022-11-25T11:22:35;12.00;88.90
76567;DHT22;65428;53.194;6.132;2022-11-25T11:25:24;11.90;88.90
76567;DHT22;65428;53.194;6.132;2022-11-25T11:27:51;11.70;89.70
76567;DHT22;65428;53.194;6.132;2022-11-25T11:30:22;11.80;88.70
76567;DHT22;65428;53.194;6.132;2022-11-25T11:47:49;13.70;81.20
76567;DHT22;65428;53.194;6.132;2022-11-25T11:50:25;13.40;83.10
76567;DHT22;65428;53.194;6.132;2022-11-25T11:53:01;14.00;81.80
76567;DHT22;65428;53.194;6.132;2022-11-25T12:01:33;14.70;78.80
76567;DHT22;65428;53.194;6.132;2022-11-25T12:03:42;14.00;81.10
76567;DHT22;65428;53.194;6.132;2022-11-25T12:06:09;13.40;83.00
76567;DHT22;65428;53.194;6.132;2022-11-25T12:11:22;12.90;86.80
76567;DHT22;65428;53.194;6.132;2022-11-25T12:13:58;13.10;86.20
76567;DHT22;65428;53.194;6.132;2022-11-25T12:16:35;12.80;87.50
76567;DHT22;65428;53.194;6.132;2022-11-25T12:22:02;12.50;87.20
76567;DHT22;65428;53.194;6.132;2022-11-25T12:24:45;12.40;87.90
76567;DHT22;65428;53.194;6.132;2022-11-25T12:27:24;12.60;89.30
76567;DHT22;65428;53.194;6.132;2022-11-25T12:30:15;12.90;88.80
76567;DHT22;65428;53.194;6.132;2022-11-25T12:32:52;13.00;87.10
76567;DHT22;65428;53.194;6.132;2022-11-25T12:38:45;13.00;86.90
76567;DHT22;65428;53.194;6.132;2022-11-25T12:44:29;13.00;87.60
76567;DHT22;65428;53.194;6.132;2022-11-25T12:46:57;12.80;88.90
76567;DHT22;65428;53.194;6.132;2022-11-25T12:49:42;12.70;86.40
76567;DHT22;65428;53.194;6.132;2022-11-25T12:55:25;12.30;88.80
76567;DHT22;65428;53.194;6.132;2022-11-25T12:58:19;12.50;88.30
76567;DHT22;65428;53.194;6.132;2022-11-25T13:06:38;13.00;87.60
76567;DHT22;65428;53.194;6.132;2022-11-25T13:15:00;12.80;88.20
76567;DHT22;65428;53.194;6.132;2022-11-25T13:16:59;12.70;88.70
76567;DHT22;65428;53.194;6.132;2022-11-25T13:19:25;12.40;88.30
76567;DHT22;65428;53.194;6.132;2022-11-25T13:22:02;12.30;88.80
76567;DHT22;65428;53.194;6.132;2022-11-25T13:26:59;12.10;90.00
76567;DHT22;65428;53.194;6.132;2022-11-25T13:32:02;12.20;89.90
76567;DHT22;65428;53.194;6.132;2022-11-25T13:34:35;12.10;90.30
76567;DHT22;65428;53.194;6.132;2022-11-25T13:37:33;12.00;90.50
76567;DHT22;65428;53.194;6.132;2022-11-25T13:39:47;11.90;90.80
76567;DHT22;65428;53.194;6.132;2022-11-25T13:42:21;11.80;91.00
76567;DHT22;65428;53.194;6.132;2022-11-25T13:44:57;11.80;91.20
76567;DHT22;65428;53.194;6.132;2022-11-25T13:47:27;11.90;91.30
76567;DHT22;65428;53.194;6.132;2022-11-25T13:54:57;12.00;91.40
76567;DHT22;65428;53.194;6.132;2022-11-25T13:57:28;11.80;90.90
76567;DHT22;65428;53.194;6.132;2022-11-25T14:00:04;11.70;90.20
76567;DHT22;65428;53.194;6.132;2022-11-25T14:02:34;11.60;90.80
76567;DHT22;65428;53.194;6.132;2022-11-25T14:06:14;11.50;90.90
76567;DHT22;65428;53.194;6.132;2022-11-25T14:08:44;11.40;91.00
76567;DHT22;65428;53.194;6.132;2022-11-25T14:14:15;11.60;90.70
76567;DHT22;65428;53.194;6.132;2022-11-25T14:25:18;11.40;91.20
76567;DHT22;65428;53.194;6.132;2022-11-25T14:27:47;11.40;91.10
76567;DHT22;65428;53.194;6.132;2022-11-25T14:30:15;11.30;91.10
76567;DHT22;65428;53.194;6.132;2022-11-25T14:32:50;11.20;91.20
76567;DHT22;65428;53.194;6.132;2022-11-25T14:35:39;11.10;91.70
76567;DHT22;65428;53.194;6.132;2022-11-25T14:41:04;11.10;91.40
76567;DHT22;65428;53.194;6.132;2022-11-25T14:43:42;10.90;92.10
76567;DHT22;65428;53.194;6.132;2022-11-25T14:46:14;10.70;91.40
76567;DHT22;65428;53.194;6.132;2022-11-25T14:48:42;10.50;91.70
76567;DHT22;65428;53.194;6.132;2022-11-25T14:51:09;10.40;91.80
76567;DHT22;65428;53.194;6.132;2022-11-25T14:53:45;10.30;92.00
76567;DHT22;65428;53.194;6.132;2022-11-25T14:56:12;10.40;92.60
76567;DHT22;65428;53.194;6.132;2022-11-25T14:58:50;10.20;92.60
76567;DHT22;65428;53.194;6.132;2022-11-25T15:01:19;10.30;92.80
76567;DHT22;65428;53.194;6.132;2022-11-25T15:03:50;10.50;92.70
76567;DHT22;65428;53.194;6.132;2022-11-25T15:06:16;10.10;92.40
76567;DHT22;65428;53.194;6.132;2022-11-25T15:08:53;10.00;92.50
76567;DHT22;65428;53.194;6.132;2022-11-25T15:11:22;9.90;92.70
76567;DHT22;65428;53.194;6.132;2022-11-25T15:13:58;9.80;92.90
76567;DHT22;65428;53.194;6.132;2022-11-25T15:16:39;9.80;92.80
76567;DHT22;65428;53.194;6.132;2022-11-25T15:19:16;9.70;92.90
76567;DHT22;65428;53.194;6.132;2022-11-25T15:21:43;9.60;92.90
76567;DHT22;65428;53.194;6.132;2022-11-25T15:24:28;9.50;92.70
76567;DHT22;65428;53.194;6.132;2022-11-25T15:26:58;9.40;92.90
76567;DHT22;65428;53.194;6.132;2022-11-25T15:29:25;9.30;92.80
76567;DHT22;65428;53.194;6.132;2022-11-25T15:31:52;9.20;92.90
76567;DHT22;65428;53.194;6.132;2022-11-25T15:34:20;9.10;92.90
76567;DHT22;65428;53.194;6.132;2022-11-25T15:36:47;9.00;93.00
76567;DHT22;65428;53.194;6.132;2022-11-25T15:41:55;8.90;93.00
76567;DHT22;65428;53.194;6.132;2022-11-25T15:44:25;8.80;93.30
76567;DHT22;65428;53.194;6.132;2022-11-25T15:49:23;8.90;94.00
76567;DHT22;65428;53.194;6.132;2022-11-25T15:51:56;8.80;93.80
76567;DHT22;65428;53.194;6.132;2022-11-25T15:54:32;8.80;93.50
76567;DHT22;65428;53.194;6.132;2022-11-25T15:57:17;8.70;93.60
76567;DHT22;65428;53.194;6.132;2022-11-25T16:00:12;8.70;93.50
76567;DHT22;65428;53.194;6.132;2022-11-25T16:18:17;8.10;93.50
76567;DHT22;65428;53.194;6.132;2022-11-25T16:20:52;8.20;93.40
76567;DHT22;65428;53.194;6.132;2022-11-25T16:23:20;8.00;93.40
76567;DHT22;65428;53.194;6.132;2022-11-25T16:25:54;8.00;93.50
76567;DHT22;65428;53.194;6.132;2022-11-25T16:28:22;7.90;93.70
76567;DHT22;65428;53.194;6.132;2022-11-25T16:30:49;7.90;93.80
76567;DHT22;65428;53.194;6.132;2022-11-25T16:33:16;7.80;93.70
76567;DHT22;65428;53.194;6.132;2022-11-25T16:35:42;7.70;93.60
76567;DHT22;65428;53.194;6.132;2022-11-25T16:38:09;7.70;93.70
76567;DHT22;65428;53.194;6.132;2022-11-25T16:40:36;7.70;93.70
76567;DHT22;65428;53.194;6.132;2022-11-25T16:43:05;7.70;94.00
76567;DHT22;65428;53.194;6.132;2022-11-25T16:45:31;7.60;93.60
76567;DHT22;65428;53.194;6.132;2022-11-25T16:47:57;7.60;93.90
76567;DHT22;65428;53.194;6.132;2022-11-25T16:50:23;7.60;94.00
76567;DHT22;65428;53.194;6.132;2022-11-25T16:52:48;7.60;93.80
76567;DHT22;65428;53.194;6.132;2022-11-25T16:55:14;7.50;93.70
76567;DHT22;65428;53.194;6.132;2022-11-25T16:57:41;7.50;93.80
76567;DHT22;65428;53.194;6.132;2022-11-25T17:00:12;7.50;93.90
76567;DHT22;65428;53.194;6.132;2022-11-25T17:02:38;7.40;94.00
76567;DHT22;65428;53.194;6.132;2022-11-25T17:05:22;7.40;94.10
76567;DHT22;65428;53.194;6.132;2022-11-25T17:07:48;7.40;94.30
76567;DHT22;65428;53.194;6.132;2022-11-25T17:10:15;7.40;94.30
76567;DHT22;65428;53.194;6.132;2022-11-25T17:12:42;7.40;94.10
76567;DHT22;65428;53.194;6.132;2022-11-25T17:15:18;7.40;94.30
76567;DHT22;65428;53.194;6.132;2022-11-25T17:17:46;7.30;94.20
76567;DHT22;65428;53.194;6.132;2022-11-25T17:20:21;7.30;94.20
76567;DHT22;65428;53.194;6.132;2022-11-25T17:22:48;7.40;94.20
76567;DHT22;65428;53.194;6.132;2022-11-25T17:25:14;7.30;94.30
76567;DHT22;65428;53.194;6.132;2022-11-25T17:27:40;7.30;94.20
76567;DHT22;65428;53.194;6.132;2022-11-25T17:30:17;7.30;94.10
76567;DHT22;65428;53.194;6.132;2022-11-25T17:32:43;7.20;94.40
76567;DHT22;65428;53.194;6.132;2022-11-25T17:35:19;7.20;94.30
76567;DHT22;65428;53.194;6.132;2022-11-25T17:37:45;7.20;93.90
76567;DHT22;65428;53.194;6.132;2022-11-25T17:40:12;7.10;93.80
76567;DHT22;65428;53.194;6.132;2022-11-25T17:42:38;7.10;93.90
76567;DHT22;65428;53.194;6.132;2022-11-25T17:45:11;7.00;93.90
76567;DHT22;65428;53.194;6.132;2022-11-25T17:47:37;7.00;93.80
76567;DHT22;65428;53.194;6.132;2022-11-25T17:50:23;6.90;93.90
76567;DHT22;65428;53.194;6.132;2022-11-25T17:52:50;6.90;93.90
76567;DHT22;65428;53.194;6.132;2022-11-25T17:55:18;6.80;93.80
76567;DHT22;65428;53.194;6.132;2022-11-25T17:57:50;6.80;94.00
76567;DHT22;65428;53.194;6.132;2022-11-25T18:00:18;6.80;94.00